sensor_id;sensor_type;location;lat;lon;timestamp;pressure;altitude;pressure_sealevel;temperature;humidity
12247;BME280;6186;52.022;4.692;2023-04-21T00:01:42;101664.22;;;10.04;61.14
12247;BME280;6186;52.022;4.692;2023-04-21T00:04:07;101672.13;;;9.99;61.25
12247;BME280;6186;52.022;4.692;2023-04-21T00:06:33;101653.88;;;9.87;61.23
12247;BME280;6186;52.022;4.692;2023-04-21T00:08:58;101667.81;;;9.94;61.38
12247;BME280;6186;52.022;4.692;2023-04-21T00:11:23;101665.25;;;9.89;61.61
12247;BME280;6186;52.022;4.692;2023-04-21T00:13:48;101676.69;;;9.84;61.67
12247;BME280;6186;52.022;4.692;2023-04-21T00:16:13;101676.69;;;9.84;61.76
12247;BME280;6186;52.022;4.692;2023-04-21T00:18:39;101685.44;;;9.86;62.01
12247;BME280;6186;52.022;4.692;2023-04-21T00:21:04;101678.41;;;9.85;61.87
12247;BME280;6186;52.022;4.692;2023-04-21T00:23:29;101687.19;;;9.82;62.11
12247;BME280;6186;52.022;4.692;2023-04-21T00:25:54;101682.88;;;9.80;62.13
12247;BME280;6186;52.022;4.692;2023-04-21T00:28:20;101681.13;;;9.80;62.23
12247;BME280;6186;52.022;4.692;2023-04-21T00:30:45;101670.59;;;9.80;62.52
12247;BME280;6186;52.022;4.692;2023-04-21T00:33:10;101668.81;;;9.81;62.48
12247;BME280;6186;52.022;4.692;2023-04-21T00:35:35;101664.44;;;9.81;62.58
12247;BME280;6186;52.022;4.692;2023-04-21T00:38:00;101654.81;;;9.80;62.72
12247;BME280;6186;52.022;4.692;2023-04-21T00:40:26;101660.06;;;9.80;62.93
12247;BME280;6186;52.022;4.692;2023-04-21T00:42:51;101643.41;;;9.81;62.80
12247;BME280;6186;52.022;4.692;2023-04-21T00:45:16;101634.59;;;9.82;62.89
12247;BME280;6186;52.022;4.692;2023-04-21T00:47:43;101632.00;;;9.84;63.07
12247;BME280;6186;52.022;4.692;2023-04-21T00:50:10;101627.59;;;9.83;62.86
12247;BME280;6186;52.022;4.692;2023-04-21T00:52:36;101634.63;;;9.81;63.16
12247;BME280;6186;52.022;4.692;2023-04-21T00:55:03;101623.28;;;9.80;63.17
12247;BME280;6186;52.022;4.692;2023-04-21T00:57:30;101624.13;;;9.81;63.04
12247;BME280;6186;52.022;4.692;2023-04-21T00:59:55;101627.66;;;9.80;63.27
12247;BME280;6186;52.022;4.692;2023-04-21T01:02:21;101625.03;;;9.77;63.24
12247;BME280;6186;52.022;4.692;2023-04-21T01:04:47;101619.84;;;9.72;63.54
12247;BME280;6186;52.022;4.692;2023-04-21T01:07:12;101617.13;;;9.77;63.57
12247;BME280;6186;52.022;4.692;2023-04-21T01:09:37;101616.28;;;9.76;63.76
12247;BME280;6186;52.022;4.692;2023-04-21T01:12:04;101617.19;;;9.72;63.68
12247;BME280;6186;52.022;4.692;2023-04-21T01:14:30;101618.91;;;9.75;63.86
12247;BME280;6186;52.022;4.692;2023-04-21T01:16:55;101622.41;;;9.75;63.88
12247;BME280;6186;52.022;4.692;2023-04-21T01:19:21;101621.53;;;9.76;63.94
12247;BME280;6186;52.022;4.692;2023-04-21T01:21:46;101626.78;;;9.75;64.17
12247;BME280;6186;52.022;4.692;2023-04-21T01:24:11;101624.16;;;9.75;64.03
12247;BME280;6186;52.022;4.692;2023-04-21T01:26:36;101622.44;;;9.74;64.20
12247;BME280;6186;52.022;4.692;2023-04-21T01:29:02;101629.44;;;9.75;64.48
12247;BME280;6186;52.022;4.692;2023-04-21T01:31:27;101614.53;;;9.75;64.37
12247;BME280;6186;52.022;4.692;2023-04-21T01:33:52;101622.41;;;9.78;64.59
12247;BME280;6186;52.022;4.692;2023-04-21T01:36:19;101613.63;;;9.79;64.47
12247;BME280;6186;52.022;4.692;2023-04-21T01:38:44;101601.44;;;9.71;64.49
12247;BME280;6186;52.022;4.692;2023-04-21T01:41:10;101616.28;;;9.76;64.73
12247;BME280;6186;52.022;4.692;2023-04-21T01:43:36;101611.88;;;9.77;64.96
12247;BME280;6186;52.022;4.692;2023-04-21T01:46:03;101610.13;;;9.79;64.90
12247;BME280;6186;52.022;4.692;2023-04-21T01:48:28;101604.00;;;9.77;64.92
12247;BME280;6186;52.022;4.692;2023-04-21T01:50:54;101600.50;;;9.76;65.12
12247;BME280;6186;52.022;4.692;2023-04-21T01:53:19;101593.50;;;9.75;65.03
12247;BME280;6186;52.022;4.692;2023-04-21T01:55:44;101589.13;;;9.76;65.17
12247;BME280;6186;52.022;4.692;2023-04-21T01:58:09;101586.50;;;9.76;65.35
12247;BME280;6186;52.022;4.692;2023-04-21T02:00:35;101582.09;;;9.78;65.36
12247;BME280;6186;52.022;4.692;2023-04-21T02:03:00;101580.31;;;9.80;65.33
12247;BME280;6186;52.022;4.692;2023-04-21T02:05:25;101574.19;;;9.79;65.29
12247;BME280;6186;52.022;4.692;2023-04-21T02:07:50;101574.16;;;9.81;65.50
12247;BME280;6186;52.022;4.692;2023-04-21T02:10:16;101568.13;;;9.73;65.37
12247;BME280;6186;52.022;4.692;2023-04-21T02:12:41;101584.75;;;9.76;65.63
12247;BME280;6186;52.022;4.692;2023-04-21T02:15:06;101572.44;;;9.80;65.45
12247;BME280;6186;52.022;4.692;2023-04-21T02:17:32;101578.56;;;9.79;65.77
12247;BME280;6186;52.022;4.692;2023-04-21T02:19:57;101568.09;;;9.76;65.57
12247;BME280;6186;52.022;4.692;2023-04-21T02:22:23;101574.22;;;9.75;65.81
12247;BME280;6186;52.022;4.692;2023-04-21T02:24:49;101575.06;;;9.77;65.72
12247;BME280;6186;52.022;4.692;2023-04-21T02:27:14;101575.06;;;9.80;65.95
12247;BME280;6186;52.022;4.692;2023-04-21T02:29:39;101572.41;;;9.81;66.29
12247;BME280;6186;52.022;4.692;2023-04-21T02:32:04;101575.91;;;9.83;66.13
12247;BME280;6186;52.022;4.692;2023-04-21T02:34:30;101569.75;;;9.84;66.24
12247;BME280;6186;52.022;4.692;2023-04-21T02:36:55;101565.38;;;9.83;66.21
12247;BME280;6186;52.022;4.692;2023-04-21T02:39:20;101564.50;;;9.83;66.33
12247;BME280;6186;52.022;4.692;2023-04-21T02:41:45;101555.75;;;9.81;66.36
12247;BME280;6186;52.022;4.692;2023-04-21T02:44:11;101542.63;;;9.79;66.17
12247;BME280;6186;52.022;4.692;2023-04-21T02:46:41;101538.28;;;9.77;66.18
12247;BME280;6186;52.022;4.692;2023-04-21T02:49:07;101549.72;;;9.74;66.45
12247;BME280;6186;52.022;4.692;2023-04-21T02:51:32;101558.47;;;9.72;66.49
12247;BME280;6186;52.022;4.692;2023-04-21T02:53:57;101548.00;;;9.70;66.67
12247;BME280;6186;52.022;4.692;2023-04-21T02:56:23;101541.91;;;9.67;66.66
12247;BME280;6186;52.022;4.692;2023-04-21T02:58:48;101533.09;;;9.71;66.65
12247;BME280;6186;52.022;4.692;2023-04-21T03:01:13;101530.53;;;9.65;66.83
12247;BME280;6186;52.022;4.692;2023-04-21T03:03:38;101526.13;;;9.67;66.89
12247;BME280;6186;52.022;4.692;2023-04-21T03:06:04;101535.72;;;9.72;66.79
12247;BME280;6186;52.022;4.692;2023-04-21T03:08:30;101540.97;;;9.69;66.88
12247;BME280;6186;52.022;4.692;2023-04-21T03:10:56;101547.16;;;9.67;66.79
12247;BME280;6186;52.022;4.692;2023-04-21T03:13:21;101552.41;;;9.67;67.25
12247;BME280;6186;52.022;4.692;2023-04-21T03:15:47;101546.25;;;9.68;67.05
12247;BME280;6186;52.022;4.692;2023-04-21T03:18:13;101545.38;;;9.70;67.25
12247;BME280;6186;52.022;4.692;2023-04-21T03:20:38;101534.81;;;9.72;67.48
12247;BME280;6186;52.022;4.692;2023-04-21T03:23:03;101542.72;;;9.70;67.59
12247;BME280;6186;52.022;4.692;2023-04-21T03:25:29;101535.75;;;9.68;67.62
12247;BME280;6186;52.022;4.692;2023-04-21T03:27:54;101534.03;;;9.65;67.41
12247;BME280;6186;52.022;4.692;2023-04-21T03:30:20;101527.03;;;9.64;67.56
12247;BME280;6186;52.022;4.692;2023-04-21T03:32:46;101523.53;;;9.62;67.74
12247;BME280;6186;52.022;4.692;2023-04-21T03:35:11;101516.53;;;9.60;67.72
12247;BME280;6186;52.022;4.692;2023-04-21T03:37:36;101501.75;;;9.51;67.80
12247;BME280;6186;52.022;4.692;2023-04-21T03:40:03;101503.47;;;9.52;67.71
12247;BME280;6186;52.022;4.692;2023-04-21T03:42:28;101508.72;;;9.55;67.99
12247;BME280;6186;52.022;4.692;2023-04-21T03:44:53;101501.72;;;9.54;68.01
12247;BME280;6186;52.022;4.692;2023-04-21T03:47:18;101504.34;;;9.52;68.25
12247;BME280;6186;52.022;4.692;2023-04-21T03:49:43;101508.75;;;9.54;68.27
12247;BME280;6186;52.022;4.692;2023-04-21T03:52:09;101505.25;;;9.53;68.24
12247;BME280;6186;52.022;4.692;2023-04-21T03:54:34;101494.75;;;9.48;68.57
12247;BME280;6186;52.022;4.692;2023-04-21T03:56:59;101491.22;;;9.52;68.62
12247;BME280;6186;52.022;4.692;2023-04-21T03:59:24;101492.97;;;9.54;68.72
12247;BME280;6186;52.022;4.692;2023-04-21T04:01:50;101487.72;;;9.52;68.71
12247;BME280;6186;52.022;4.692;2023-04-21T04:04:15;101483.34;;;9.51;68.77
12247;BME280;6186;52.022;4.692;2023-04-21T04:06:40;101483.34;;;9.51;68.90
12247;BME280;6186;52.022;4.692;2023-04-21T04:09:05;101486.84;;;9.50;69.22
12247;BME280;6186;52.022;4.692;2023-04-21T04:11:31;101479.91;;;9.47;68.94
12247;BME280;6186;52.022;4.692;2023-04-21T04:13:56;101486.00;;;9.49;69.07
12247;BME280;6186;52.022;4.692;2023-04-21T04:16:22;101480.75;;;9.49;69.38
12247;BME280;6186;52.022;4.692;2023-04-21T04:18:49;101488.63;;;9.51;69.65
12247;BME280;6186;52.022;4.692;2023-04-21T04:21:14;101481.66;;;9.45;69.53
12247;BME280;6186;52.022;4.692;2023-04-21T04:23:39;101478.97;;;9.52;69.72
12247;BME280;6186;52.022;4.692;2023-04-21T04:26:04;101482.47;;;9.52;69.90
12247;BME280;6186;52.022;4.692;2023-04-21T04:28:30;101474.63;;;9.49;69.79
12247;BME280;6186;52.022;4.692;2023-04-21T04:30:55;101486.81;;;9.56;70.10
12247;BME280;6186;52.022;4.692;2023-04-21T04:33:20;101485.94;;;9.57;70.03
12247;BME280;6186;52.022;4.692;2023-04-21T04:35:46;101492.03;;;9.58;70.05
12247;BME280;6186;52.022;4.692;2023-04-21T04:38:11;101475.44;;;9.56;70.23
12247;BME280;6186;52.022;4.692;2023-04-21T04:40:36;101478.06;;;9.56;70.15
12247;BME280;6186;52.022;4.692;2023-04-21T04:43:02;101474.66;;;9.47;70.42
12247;BME280;6186;52.022;4.692;2023-04-21T04:45:27;101489.44;;;9.55;70.27
12247;BME280;6186;52.022;4.692;2023-04-21T04:47:52;101481.59;;;9.52;70.07
12247;BME280;6186;52.022;4.692;2023-04-21T04:50:17;101479.91;;;9.47;70.42
12247;BME280;6186;52.022;4.692;2023-04-21T04:52:43;101490.38;;;9.49;70.77
12247;BME280;6186;52.022;4.692;2023-04-21T04:55:08;101498.25;;;9.50;70.71
12247;BME280;6186;52.022;4.692;2023-04-21T04:57:33;101504.34;;;9.52;70.87
12247;BME280;6186;52.022;4.692;2023-04-21T04:59:58;101499.09;;;9.56;71.08
12247;BME280;6186;52.022;4.692;2023-04-21T05:02:23;101503.41;;;9.60;71.25
12247;BME280;6186;52.022;4.692;2023-04-21T05:04:49;101499.00;;;9.62;71.05
12247;BME280;6186;52.022;4.692;2023-04-21T05:07:15;101499.91;;;9.58;71.19
12247;BME280;6186;52.022;4.692;2023-04-21T05:09:40;101498.13;;;9.63;71.38
12247;BME280;6186;52.022;4.692;2023-04-21T05:12:05;101492.00;;;9.62;71.48
12247;BME280;6186;52.022;4.692;2023-04-21T05:14:30;101491.09;;;9.65;71.63
12247;BME280;6186;52.022;4.692;2023-04-21T05:16:56;101490.19;;;9.66;71.63
12247;BME280;6186;52.022;4.692;2023-04-21T05:19:21;101491.06;;;9.68;71.74
12247;BME280;6186;52.022;4.692;2023-04-21T05:21:46;101485.78;;;9.71;71.95
12247;BME280;6186;52.022;4.692;2023-04-21T05:24:11;101478.81;;;9.64;72.22
12247;BME280;6186;52.022;4.692;2023-04-21T05:26:37;101490.16;;;9.70;72.20
12247;BME280;6186;52.022;4.692;2023-04-21T05:29:02;101499.78;;;9.71;72.51
12247;BME280;6186;52.022;4.692;2023-04-21T05:31:27;101499.78;;;9.73;72.45
12247;BME280;6186;52.022;4.692;2023-04-21T05:33:53;101497.16;;;9.70;72.48
12247;BME280;6186;52.022;4.692;2023-04-21T05:36:18;101503.25;;;9.76;72.94
12247;BME280;6186;52.022;4.692;2023-04-21T05:38:43;101509.34;;;9.78;73.01
12247;BME280;6186;52.022;4.692;2023-04-21T05:41:08;101512.81;;;9.82;73.17
12247;BME280;6186;52.022;4.692;2023-04-21T05:43:34;101501.44;;;9.80;73.18
12247;BME280;6186;52.022;4.692;2023-04-21T05:46:00;101501.47;;;9.78;73.35
12247;BME280;6186;52.022;4.692;2023-04-21T05:48:25;101491.78;;;9.79;73.48
12247;BME280;6186;52.022;4.692;2023-04-21T05:50:51;101511.03;;;9.85;73.40
12247;BME280;6186;52.022;4.692;2023-04-21T05:53:16;101520.59;;;9.91;73.77
12247;BME280;6186;52.022;4.692;2023-04-21T05:55:41;101522.31;;;9.92;73.64
12247;BME280;6186;52.022;4.692;2023-04-21T05:58:07;101524.06;;;9.93;73.82
12247;BME280;6186;52.022;4.692;2023-04-21T06:00:32;101523.19;;;9.92;74.05
12247;BME280;6186;52.022;4.692;2023-04-21T06:02:57;101524.06;;;9.93;73.94
12247;BME280;6186;52.022;4.692;2023-04-21T06:05:22;101523.19;;;9.94;74.00
12247;BME280;6186;52.022;4.692;2023-04-21T06:07:48;101512.69;;;9.92;74.45
12247;BME280;6186;52.022;4.692;2023-04-21T06:10:13;101524.88;;;9.98;74.31
12247;BME280;6186;52.022;4.692;2023-04-21T06:12:38;101520.53;;;9.97;74.47
12247;BME280;6186;52.022;4.692;2023-04-21T06:15:04;101518.75;;;9.99;74.74
12247;BME280;6186;52.022;4.692;2023-04-21T06:17:29;101518.72;;;10.00;75.13
12247;BME280;6186;52.022;4.692;2023-04-21T06:19:54;101521.41;;;9.97;75.18
12247;BME280;6186;52.022;4.692;2023-04-21T06:22:20;101523.09;;;10.03;75.10
12247;BME280;6186;52.022;4.692;2023-04-21T06:24:45;101526.56;;;10.05;75.35
12247;BME280;6186;52.022;4.692;2023-04-21T06:27:11;101530.88;;;10.09;75.73
12247;BME280;6186;52.022;4.692;2023-04-21T06:29:36;101525.66;;;10.07;75.79
12247;BME280;6186;52.022;4.692;2023-04-21T06:32:01;101526.50;;;10.12;76.00
12247;BME280;6186;52.022;4.692;2023-04-21T06:34:27;101523.84;;;10.15;76.22
12247;BME280;6186;52.022;4.692;2023-04-21T06:36:52;101523.78;;;10.20;76.50
12247;BME280;6186;52.022;4.692;2023-04-21T06:39:17;101522.84;;;10.22;76.38
12247;BME280;6186;52.022;4.692;2023-04-21T06:41:42;101522.81;;;10.24;76.73
12247;BME280;6186;52.022;4.692;2023-04-21T06:44:08;101519.34;;;10.23;76.85
12247;BME280;6186;52.022;4.692;2023-04-21T06:46:33;101525.41;;;10.28;76.96
12247;BME280;6186;52.022;4.692;2023-04-21T06:48:58;101526.22;;;10.33;77.33
12247;BME280;6186;52.022;4.692;2023-04-21T06:51:23;101518.31;;;10.35;77.59
12247;BME280;6186;52.022;4.692;2023-04-21T06:53:49;101518.28;;;10.38;77.29
12247;BME280;6186;52.022;4.692;2023-04-21T06:56:14;101520.00;;;10.40;77.57
12247;BME280;6186;52.022;4.692;2023-04-21T06:58:39;101514.75;;;10.37;77.70
12247;BME280;6186;52.022;4.692;2023-04-21T07:01:04;101523.41;;;10.47;78.21
12247;BME280;6186;52.022;4.692;2023-04-21T07:03:29;101518.13;;;10.50;78.10
12247;BME280;6186;52.022;4.692;2023-04-21T07:05:55;101519.84;;;10.51;78.23
12247;BME280;6186;52.022;4.692;2023-04-21T07:08:20;101514.59;;;10.50;78.30
12247;BME280;6186;52.022;4.692;2023-04-21T07:10:45;101523.38;;;10.50;78.60
12247;BME280;6186;52.022;4.692;2023-04-21T07:13:10;101515.47;;;10.50;79.05
12247;BME280;6186;52.022;4.692;2023-04-21T07:15:35;101512.88;;;10.47;79.24
12247;BME280;6186;52.022;4.692;2023-04-21T07:18:01;101507.63;;;10.46;79.25
12247;BME280;6186;52.022;4.692;2023-04-21T07:20:26;101520.75;;;10.50;79.66
12247;BME280;6186;52.022;4.692;2023-04-21T07:22:51;101518.97;;;10.49;79.75
12247;BME280;6186;52.022;4.692;2023-04-21T07:25:16;101504.97;;;10.47;80.06
12247;BME280;6186;52.022;4.692;2023-04-21T07:27:42;101508.53;;;10.45;79.92
12247;BME280;6186;52.022;4.692;2023-04-21T07:30:07;101518.13;;;10.50;80.36
12247;BME280;6186;52.022;4.692;2023-04-21T07:32:33;101528.59;;;10.53;80.83
12247;BME280;6186;52.022;4.692;2023-04-21T07:34:58;101513.69;;;10.52;80.77
12247;BME280;6186;52.022;4.692;2023-04-21T07:37:23;101509.38;;;10.48;81.10
12247;BME280;6186;52.022;4.692;2023-04-21T07:39:48;101518.00;;;10.56;81.41
12247;BME280;6186;52.022;4.692;2023-04-21T07:42:14;101511.88;;;10.57;82.09
12247;BME280;6186;52.022;4.692;2023-04-21T07:44:39;101511.66;;;10.71;82.43
12247;BME280;6186;52.022;4.692;2023-04-21T07:47:04;101507.84;;;10.88;83.51
12247;BME280;6186;52.022;4.692;2023-04-21T07:49:29;101521.72;;;11.01;83.55
12247;BME280;6186;52.022;4.692;2023-04-21T07:51:55;101519.72;;;11.15;84.11
12247;BME280;6186;52.022;4.692;2023-04-21T07:54:20;101515.13;;;11.27;84.52
12247;BME280;6186;52.022;4.692;2023-04-21T07:56:45;101518.50;;;11.34;84.80
12247;BME280;6186;52.022;4.692;2023-04-21T07:59:10;101514.16;;;11.33;84.35
12247;BME280;6186;52.022;4.692;2023-04-21T08:01:36;101516.69;;;11.37;84.40
12247;BME280;6186;52.022;4.692;2023-04-21T08:04:01;101513.09;;;11.42;84.80
12247;BME280;6186;52.022;4.692;2023-04-21T08:06:26;101510.28;;;11.51;85.25
12247;BME280;6186;52.022;4.692;2023-04-21T08:08:51;101513.00;;;11.48;85.02
12247;BME280;6186;52.022;4.692;2023-04-21T08:11:17;101498.09;;;11.45;85.35
12247;BME280;6186;52.022;4.692;2023-04-21T08:13:42;101515.53;;;11.54;85.87
12247;BME280;6186;52.022;4.692;2023-04-21T08:16:07;101523.25;;;11.63;86.45
12247;BME280;6186;52.022;4.692;2023-04-21T08:18:32;101515.28;;;11.69;86.79
12247;BME280;6186;52.022;4.692;2023-04-21T08:20:58;101513.34;;;11.78;86.96
12247;BME280;6186;52.022;4.692;2023-04-21T08:23:23;101510.38;;;11.93;87.83
12247;BME280;6186;52.022;4.692;2023-04-21T08:25:48;101514.28;;;12.18;89.16
12247;BME280;6186;52.022;4.692;2023-04-21T08:28:13;101506.56;;;12.48;90.57
12247;BME280;6186;52.022;4.692;2023-04-21T08:30:38;101513.03;;;12.73;90.36
12247;BME280;6186;52.022;4.692;2023-04-21T08:33:04;101512.00;;;12.80;90.02
12247;BME280;6186;52.022;4.692;2023-04-21T08:35:29;101496.75;;;12.92;90.74
12247;BME280;6186;52.022;4.692;2023-04-21T08:37:54;101457.31;;;12.83;91.05
12247;BME280;6186;52.022;4.692;2023-04-21T08:40:19;101507.44;;;13.23;91.22
12247;BME280;6186;52.022;4.692;2023-04-21T08:42:45;101498.50;;;13.27;90.89
12247;BME280;6186;52.022;4.692;2023-04-21T08:45:12;101502.50;;;13.43;91.71
12247;BME280;6186;52.022;4.692;2023-04-21T08:47:40;101503.56;;;13.68;92.80
12247;BME280;6186;52.022;4.692;2023-04-21T08:50:07;101505.94;;;13.79;92.30
12247;BME280;6186;52.022;4.692;2023-04-21T08:52:35;101499.91;;;13.74;91.09
12247;BME280;6186;52.022;4.692;2023-04-21T08:55:01;101494.13;;;13.60;90.10
12247;BME280;6186;52.022;4.692;2023-04-21T08:57:26;101485.31;;;13.59;90.96
12247;BME280;6186;52.022;4.692;2023-04-21T08:59:51;101483.94;;;13.77;92.37
12247;BME280;6186;52.022;4.692;2023-04-21T09:02:19;101489.19;;;14.09;93.77
12247;BME280;6186;52.022;4.692;2023-04-21T09:04:50;101492.13;;;14.31;93.67
12247;BME280;6186;52.022;4.692;2023-04-21T09:07:34;101486.66;;;14.35;93.27
12247;BME280;6186;52.022;4.692;2023-04-21T09:10:00;101482.00;;;14.43;93.49
12247;BME280;6186;52.022;4.692;2023-04-21T09:12:26;101484.81;;;14.66;94.94
12247;BME280;6186;52.022;4.692;2023-04-21T09:14:53;101468.34;;;14.83;95.82
12247;BME280;6186;52.022;4.692;2023-04-21T09:17:21;101481.56;;;15.10;95.72
12247;BME280;6186;52.022;4.692;2023-04-21T09:19:46;101489.44;;;15.14;95.10
12247;BME280;6186;52.022;4.692;2023-04-21T09:22:16;101484.00;;;15.17;95.82
12247;BME280;6186;52.022;4.692;2023-04-21T09:24:48;101481.28;;;15.46;97.75
12247;BME280;6186;52.022;4.692;2023-04-21T09:27:15;101483.47;;;15.82;98.80
12247;BME280;6186;52.022;4.692;2023-04-21T09:29:45;101480.97;;;16.01;98.78
12247;BME280;6186;52.022;4.692;2023-04-21T09:32:10;101474.41;;;16.11;99.23
12247;BME280;6186;52.022;4.692;2023-04-21T09:34:40;101484.75;;;16.19;98.64
12247;BME280;6186;52.022;4.692;2023-04-21T09:37:06;101472.41;;;16.18;98.39
12247;BME280;6186;52.022;4.692;2023-04-21T09:39:34;101468.81;;;16.42;100.00
12247;BME280;6186;52.022;4.692;2023-04-21T09:41:59;101463.78;;;16.79;100.00
12247;BME280;6186;52.022;4.692;2023-04-21T09:44:25;101470.28;;;16.93;100.00
12247;BME280;6186;52.022;4.692;2023-04-21T09:46:53;101470.38;;;16.90;100.00
12247;BME280;6186;52.022;4.692;2023-04-21T09:49:22;101471.00;;;16.75;99.39
12247;BME280;6186;52.022;4.692;2023-04-21T09:51:49;101461.38;;;16.73;99.91
12247;BME280;6186;52.022;4.692;2023-04-21T09:54:17;101468.91;;;16.83;100.00
12247;BME280;6186;52.022;4.692;2023-04-21T09:56:46;101464.56;;;16.81;99.92
12247;BME280;6186;52.022;4.692;2023-04-21T09:59:18;101470.38;;;16.90;100.00
12247;BME280;6186;52.022;4.692;2023-04-21T10:01:44;101457.47;;;16.81;99.18
12247;BME280;6186;52.022;4.692;2023-04-21T10:04:13;101456.72;;;16.78;99.49
12247;BME280;6186;52.022;4.692;2023-04-21T10:06:39;101455.88;;;16.98;100.00
12247;BME280;6186;52.022;4.692;2023-04-21T10:09:05;101463.69;;;17.02;99.97
12247;BME280;6186;52.022;4.692;2023-04-21T10:11:34;101455.13;;;16.96;99.37
12247;BME280;6186;52.022;4.692;2023-04-21T10:13:59;101470.94;;;16.99;98.93
12247;BME280;6186;52.022;4.692;2023-04-21T10:16:25;101459.25;;;17.03;99.28
12247;BME280;6186;52.022;4.692;2023-04-21T10:18:50;101451.84;;;17.09;99.21
12247;BME280;6186;52.022;4.692;2023-04-21T10:21:17;101450.63;;;17.18;99.62
12247;BME280;6186;52.022;4.692;2023-04-21T10:23:50;101451.06;;;17.07;97.54
12247;BME280;6186;52.022;4.692;2023-04-21T10:26:20;101448.47;;;17.06;97.75
12247;BME280;6186;52.022;4.692;2023-04-21T10:28:53;101446.75;;;17.05;97.01
12247;BME280;6186;52.022;4.692;2023-04-21T10:31:29;101451.91;;;16.87;95.29
12247;BME280;6186;52.022;4.692;2023-04-21T10:39:09;101434.00;;;16.71;94.69
12247;BME280;6186;52.022;4.692;2023-04-21T10:41:35;101425.72;;;16.77;96.29
12247;BME280;6186;52.022;4.692;2023-04-21T10:44:10;101424.38;;;16.88;96.33
12247;BME280;6186;52.022;4.692;2023-04-21T10:46:43;101423.47;;;17.10;97.71
12247;BME280;6186;52.022;4.692;2023-04-21T10:49:24;101413.22;;;17.21;97.15
12247;BME280;6186;52.022;4.692;2023-04-21T10:54:24;101409.25;;;17.51;98.41
12247;BME280;6186;52.022;4.692;2023-04-21T10:56:51;101412.28;;;17.62;98.20
12247;BME280;6186;52.022;4.692;2023-04-21T10:59:18;101405.91;;;17.46;95.61
12247;BME280;6186;52.022;4.692;2023-04-21T11:01:43;101395.25;;;17.46;96.84
12247;BME280;6186;52.022;4.692;2023-04-21T11:04:27;101405.44;;;17.95;100.00
12247;BME280;6186;52.022;4.692;2023-04-21T11:07:11;101397.28;;;18.35;100.00
12247;BME280;6186;52.022;4.692;2023-04-21T11:09:38;101392.44;;;18.62;100.00
12247;BME280;6186;52.022;4.692;2023-04-21T11:12:13;101390.19;;;18.71;100.00
12247;BME280;6186;52.022;4.692;2023-04-21T11:14:39;101383.03;;;18.72;100.00
12247;BME280;6186;52.022;4.692;2023-04-21T11:17:10;101384.47;;;18.79;100.00
12247;BME280;6186;52.022;4.692;2023-04-21T11:19:36;101384.69;;;18.92;100.00
12247;BME280;6186;52.022;4.692;2023-04-21T11:22:03;101378.34;;;18.77;98.33
12247;BME280;6186;52.022;4.692;2023-04-21T11:24:30;101356.03;;;18.61;97.40
12247;BME280;6186;52.022;4.692;2023-04-21T11:26:56;101353.78;;;19.05;100.00
12247;BME280;6186;52.022;4.692;2023-04-21T11:29:21;101352.06;;;19.38;100.00
12247;BME280;6186;52.022;4.692;2023-04-21T11:31:46;101352.63;;;19.60;100.00
12247;BME280;6186;52.022;4.692;2023-04-21T11:34:12;101369.69;;;19.73;99.83
12247;BME280;6186;52.022;4.692;2023-04-21T11:36:40;101362.94;;;19.50;96.57
12247;BME280;6186;52.022;4.692;2023-04-21T11:39:10;101354.31;;;19.61;98.87
12247;BME280;6186;52.022;4.692;2023-04-21T11:41:38;101351.78;;;20.06;100.00
12247;BME280;6186;52.022;4.692;2023-04-21T11:44:03;101346.78;;;20.16;99.22
12247;BME280;6186;52.022;4.692;2023-04-21T11:46:29;101334.31;;;19.85;95.77
12247;BME280;6186;52.022;4.692;2023-04-21T11:49:02;101328.41;;;19.63;93.88
12247;BME280;6186;52.022;4.692;2023-04-21T11:51:34;101332.63;;;19.67;94.08
12247;BME280;6186;52.022;4.692;2023-04-21T11:53:59;101335.81;;;19.89;94.83
12247;BME280;6186;52.022;4.692;2023-04-21T11:56:25;101339.13;;;19.94;93.80
12247;BME280;6186;52.022;4.692;2023-04-21T11:58:50;101334.00;;;19.74;91.40
12247;BME280;6186;52.022;4.692;2023-04-21T12:01:17;101325.22;;;19.72;91.16
12247;BME280;6186;52.022;4.692;2023-04-21T12:03:52;101330.44;;;19.91;91.73
12247;BME280;6186;52.022;4.692;2023-04-21T12:06:20;101325.59;;;20.13;92.38
12247;BME280;6186;52.022;4.692;2023-04-21T12:08:45;101327.13;;;20.17;91.84
12247;BME280;6186;52.022;4.692;2023-04-21T12:11:10;101331.06;;;20.27;91.51
12247;BME280;6186;52.022;4.692;2023-04-21T12:13:39;101325.09;;;20.22;91.32
12247;BME280;6186;52.022;4.692;2023-04-21T12:16:04;101324.28;;;20.35;91.68
12247;BME280;6186;52.022;4.692;2023-04-21T12:18:30;101323.63;;;20.32;90.18
12247;BME280;6186;52.022;4.692;2023-04-21T12:20:55;101317.16;;;20.20;89.34
12247;BME280;6186;52.022;4.692;2023-04-21T12:23:25;101314.22;;;19.94;88.04
12247;BME280;6186;52.022;4.692;2023-04-21T12:25:50;101312.31;;;19.80;87.92
12247;BME280;6186;52.022;4.692;2023-04-21T12:28:15;101309.72;;;19.79;87.51
12247;BME280;6186;52.022;4.692;2023-04-21T12:30:40;101311.88;;;19.88;87.94
12247;BME280;6186;52.022;4.692;2023-04-21T12:33:06;101308.00;;;19.93;87.60
12247;BME280;6186;52.022;4.692;2023-04-21T12:35:32;101308.50;;;19.84;86.38
12247;BME280;6186;52.022;4.692;2023-04-21T12:37:57;101306.44;;;19.58;84.56
12247;BME280;6186;52.022;4.692;2023-04-21T12:40:22;101300.53;;;19.51;84.75
12247;BME280;6186;52.022;4.692;2023-04-21T12:42:48;101300.19;;;19.42;83.87
12247;BME280;6186;52.022;4.692;2023-04-21T12:45:13;101304.31;;;19.32;83.67
12247;BME280;6186;52.022;4.692;2023-04-21T12:47:38;101295.56;;;19.45;84.83
12247;BME280;6186;52.022;4.692;2023-04-21T12:50:04;101293.59;;;19.64;85.17
12247;BME280;6186;52.022;4.692;2023-04-21T12:52:29;101297.66;;;19.72;84.54
12247;BME280;6186;52.022;4.692;2023-04-21T12:54:54;101286.88;;;19.73;84.45
12247;BME280;6186;52.022;4.692;2023-04-21T12:57:20;101278.00;;;19.73;83.93
12247;BME280;6186;52.022;4.692;2023-04-21T12:59:45;101270.50;;;19.79;84.40
12247;BME280;6186;52.022;4.692;2023-04-21T13:02:10;101273.16;;;20.10;86.11
12247;BME280;6186;52.022;4.692;2023-04-21T13:04:36;101270.22;;;20.30;86.07
12247;BME280;6186;52.022;4.692;2023-04-21T13:07:01;101258.22;;;20.37;85.15